Time;durP1;ratioP1;P1;durP2;ratioP2;P2;SDS_P1;SDS_P2;PMS_P1;PMS_P2;Temp;Humidity;BMP_temperature;BMP_pressure;BME280_temperature;BME280_humidity;BME280_pressure;Samples;Min_cycle;Max_cycle;Signal;HPM_P1;HPM_P2
2022/08/02 00:02:20;;;;;;;2.45;1.35;;;20.40;80.10;;;;;;5009403;28;20112;-61
2022/08/02 00:04:46;;;;;;;2.42;1.48;;;20.50;80.90;;;;;;5008144;28;20033;-61
2022/08/02 00:07:13;;;;;;;1.50;1.40;;;20.40;79.80;;;;;;5009552;28;20599;-61
2022/08/02 00:09:39;;;;;;;1.98;1.60;;;20.40;80.00;;;;;;5008574;28;20034;-61
2022/08/02 00:12:05;;;;;;;2.88;1.42;;;20.40;80.20;;;;;;5007128;28;20502;-60
2022/08/02 00:14:31;;;;;;;1.30;1.20;;;20.40;80.30;;;;;;5008067;28;20429;-61
2022/08/02 00:16:56;;;;;;;1.35;1.25;;;20.40;80.10;;;;;;5007520;28;20038;-62
2022/08/02 00:19:22;;;;;;;2.65;1.40;;;20.40;80.00;;;;;;5005810;28;20034;-61
2022/08/02 00:21:47;;;;;;;2.30;1.10;;;20.40;79.80;;;;;;5007038;28;20112;-61
2022/08/02 00:24:13;;;;;;;1.15;1.08;;;20.40;79.40;;;;;;5007611;28;20038;-61
2022/08/02 00:26:39;;;;;;;1.58;1.10;;;20.40;79.30;;;;;;5006100;28;20057;-61
2022/08/02 00:29:04;;;;;;;5.00;1.23;;;20.30;79.20;;;;;;5008134;28;20068;-59
2022/08/02 00:31:30;;;;;;;2.45;1.00;;;20.30;79.20;;;;;;5009353;28;20053;-62
2022/08/02 00:33:56;;;;;;;1.70;1.17;;;20.30;79.10;;;;;;5005646;28;20095;-59
2022/08/02 00:36:21;;;;;;;1.83;1.17;;;20.20;79.10;;;;;;5009556;28;20037;-61
2022/08/02 00:38:47;;;;;;;1.65;1.20;;;20.20;79.30;;;;;;5003929;28;20041;-62
2022/08/02 00:41:18;;;;;;;1.77;1.40;;;20.20;79.30;;;;;;5007944;28;20530;-62
2022/08/02 00:43:46;;;;;;;1.52;1.27;;;20.20;79.40;;;;;;5005146;28;20045;-62
2022/08/02 00:46:13;;;;;;;1.75;1.20;;;20.10;79.10;;;;;;5011357;28;20162;-62
2022/08/02 00:48:38;;;;;;;1.25;1.15;;;20.10;79.10;;;;;;5007353;28;20034;-61
2022/08/02 00:51:04;;;;;;;2.97;1.50;;;20.10;79.20;;;;;;5007512;28;20045;-61
2022/08/02 00:53:30;;;;;;;2.83;1.63;;;20.00;79.30;;;;;;5006821;28;20089;-61
2022/08/02 00:55:56;;;;;;;2.80;1.40;;;19.90;79.40;;;;;;5008283;28;20030;-62
2022/08/02 00:58:21;;;;;;;2.25;1.77;;;19.90;79.60;;;;;;5003457;28;20033;-61
2022/08/02 01:00:47;;;;;;;2.92;1.65;;;19.80;80.00;;;;;;5000186;28;20049;-60
2022/08/02 01:03:12;;;;;;;2.83;1.98;;;19.80;80.20;;;;;;5004143;28;20136;-61
2022/08/02 01:05:38;;;;;;;3.38;1.73;;;19.70;80.50;;;;;;5002950;28;20464;-60
2022/08/02 01:08:04;;;;;;;2.65;1.42;;;19.60;80.80;;;;;;5004304;28;20104;-61
2022/08/02 01:10:29;;;;;;;3.28;1.70;;;19.60;80.70;;;;;;5002412;28;20034;-62
2022/08/02 01:12:55;;;;;;;5.82;1.60;;;19.60;80.80;;;;;;5006039;28;20037;-61
2022/08/02 01:15:22;;;;;;;2.67;1.65;;;19.60;80.60;;;;;;5004916;28;20501;-62
2022/08/02 01:17:50;;;;;;;2.50;1.58;;;19.60;80.60;;;;;;5005965;28;20488;-62
2022/08/02 01:20:52;;;;;;;3.95;1.30;;;19.70;80.80;;;;;;5003648;28;20037;-61
2022/08/02 01:23:30;;;;;;;2.53;1.60;;;19.70;81.20;;;;;;5005430;28;20512;-61
2022/08/02 01:26:17;;;;;;;1.88;1.17;;;19.70;80.60;;;;;;5003926;28;20041;-62
2022/08/02 01:28:53;;;;;;;1.98;1.48;;;19.70;81.20;;;;;;5004145;28;20029;-62
2022/08/02 01:31:35;;;;;;;1.50;1.38;;;19.70;81.00;;;;;;5010320;28;20037;-62
2022/08/02 01:34:27;;;;;;;2.30;1.48;;;19.70;80.80;;;;;;5005955;28;20890;-60
2022/08/02 01:37:36;;;;;;;1.58;1.42;;;19.70;80.80;;;;;;5002752;28;20049;-62
2022/08/02 01:40:09;;;;;;;3.00;1.33;;;19.70;80.80;;;;;;4970216;28;20437;-62
2022/08/02 01:42:37;;;;;;;4.30;1.50;;;19.60;80.30;;;;;;5004018;28;20426;-61
2022/08/02 01:45:05;;;;;;;1.55;1.30;;;19.60;80.30;;;;;;5003467;28;20774;-62
2022/08/02 01:47:36;;;;;;;4.65;1.30;;;19.60;80.50;;;;;;5004566;28;20510;-61
2022/08/02 01:50:04;;;;;;;3.03;1.50;;;19.60;81.50;;;;;;5006176;28;20405;-62
2022/08/02 01:52:34;;;;;;;2.22;1.40;;;19.60;80.50;;;;;;5004822;28;20516;-65
2022/08/02 01:55:11;;;;;;;1.45;1.27;;;19.50;80.50;;;;;;5003130;28;20639;-62
2022/08/02 01:57:49;;;;;;;1.50;1.20;;;19.60;80.70;;;;;;5007772;28;20114;-62
2022/08/02 02:00:16;;;;;;;1.77;1.20;;;19.60;80.80;;;;;;5008072;28;20581;-61
2022/08/02 02:02:44;;;;;;;2.35;1.48;;;19.60;80.50;;;;;;5006152;28;20595;-61
2022/08/02 02:05:18;;;;;;;2.25;1.40;;;19.60;80.50;;;;;;5004130;28;20045;-62
2022/08/02 02:07:48;;;;;;;2.38;1.55;;;19.50;80.50;;;;;;5014044;28;20034;-62
2022/08/02 02:10:20;;;;;;;2.65;1.35;;;19.50;80.00;;;;;;5015104;28;20096;-61
2022/08/02 02:12:50;;;;;;;1.70;1.23;;;19.50;80.00;;;;;;5008192;28;20568;-61
2022/08/02 02:15:16;;;;;;;1.60;1.30;;;19.40;79.90;;;;;;5011142;28;20527;-61
2022/08/02 02:17:45;;;;;;;2.00;1.40;;;19.40;80.30;;;;;;5011900;28;20037;-62
2022/08/02 02:20:14;;;;;;;2.47;1.15;;;19.40;80.70;;;;;;5015816;28;20048;-61
2022/08/02 02:22:40;;;;;;;2.38;1.30;;;19.30;80.50;;;;;;5010302;28;20030;-61
2022/08/02 02:25:11;;;;;;;3.13;1.20;;;19.30;80.30;;;;;;5014498;28;20512;-62
2022/08/02 02:27:41;;;;;;;1.38;1.15;;;19.30;80.30;;;;;;5011710;28;20064;-62
2022/08/02 02:30:08;;;;;;;1.67;1.50;;;19.40;80.40;;;;;;5012988;28;20033;-62
2022/08/02 02:32:35;;;;;;;1.90;1.40;;;19.30;80.10;;;;;;5012618;28;20038;-61
2022/08/02 02:35:03;;;;;;;2.38;1.40;;;19.30;80.40;;;;;;5012231;28;20034;-61
2022/08/02 02:37:31;;;;;;;3.08;1.40;;;19.30;80.50;;;;;;5014811;28;20042;-62
2022/08/02 02:39:57;;;;;;;2.10;1.15;;;19.30;80.30;;;;;;5010950;28;20548;-61
2022/08/02 02:42:27;;;;;;;2.72;1.33;;;19.30;80.10;;;;;;5014388;28;20322;-61
2022/08/02 02:44:55;;;;;;;1.50;1.40;;;19.30;80.00;;;;;;5010257;28;21583;-60
2022/08/02 02:47:22;;;;;;;1.75;1.30;;;19.30;80.00;;;;;;5012244;28;20075;-61
2022/08/02 02:49:49;;;;;;;1.77;1.50;;;19.20;80.10;;;;;;5012252;28;20034;-61
2022/08/02 02:52:16;;;;;;;1.67;1.35;;;19.20;80.10;;;;;;5015039;28;20038;-62
2022/08/02 02:54:45;;;;;;;1.85;1.30;;;19.20;80.20;;;;;;5013510;28;20059;-61
2022/08/02 02:57:11;;;;;;;1.85;1.27;;;19.10;80.30;;;;;;5015495;28;20061;-63
2022/08/02 02:59:38;;;;;;;3.55;1.70;;;19.10;80.20;;;;;;5016299;28;20460;-62
2022/08/02 03:02:05;;;;;;;1.60;1.50;;;19.10;80.30;;;;;;5017056;28;20417;-61
2022/08/02 03:04:31;;;;;;;2.75;1.40;;;19.10;80.50;;;;;;5016151;28;20444;-61
2022/08/02 03:06:59;;;;;;;1.63;1.52;;;19.00;80.40;;;;;;5013539;28;20550;-61
2022/08/02 03:09:25;;;;;;;4.72;1.38;;;19.00;80.40;;;;;;5014559;28;20088;-62
2022/08/02 03:11:53;;;;;;;1.95;1.60;;;19.00;80.80;;;;;;5007481;28;20136;-61
2022/08/02 03:14:19;;;;;;;2.72;1.50;;;19.00;81.00;;;;;;5014803;28;20061;-62
2022/08/02 03:16:50;;;;;;;1.50;1.40;;;19.10;81.90;;;;;;5011655;28;20038;-62
2022/08/02 03:19:17;;;;;;;3.22;1.60;;;19.00;81.00;;;;;;5009609;28;20039;-60
2022/08/02 03:21:44;;;;;;;2.83;1.77;;;19.00;80.60;;;;;;5011216;28;20523;-62
2022/08/02 03:24:10;;;;;;;3.38;1.58;;;19.00;80.40;;;;;;5006708;28;20424;-62
2022/08/02 03:26:36;;;;;;;1.88;1.52;;;19.00;80.50;;;;;;5006395;28;20025;-62
2022/08/02 03:29:02;;;;;;;3.03;1.33;;;19.00;80.80;;;;;;5006653;28;20065;-61
2022/08/02 03:31:28;;;;;;;2.80;1.60;;;18.90;80.80;;;;;;5009685;28;20121;-61
2022/08/02 03:33:58;;;;;;;2.22;1.70;;;18.90;80.70;;;;;;5006382;28;20124;-61
2022/08/02 03:36:27;;;;;;;3.40;1.77;;;18.90;80.50;;;;;;5012812;28;20033;-62
2022/08/02 03:38:54;;;;;;;2.40;1.60;;;18.90;80.40;;;;;;5003771;28;20127;-62
2022/08/02 03:41:21;;;;;;;3.28;1.90;;;18.90;80.60;;;;;;5006773;28;20038;-62
2022/08/02 03:43:48;;;;;;;7.68;2.00;;;18.90;80.90;;;;;;5004805;28;20033;-62
2022/08/02 03:46:16;;;;;;;5.63;1.75;;;18.90;80.80;;;;;;5005016;28;20124;-62
2022/08/02 03:48:42;;;;;;;4.90;1.63;;;18.90;80.50;;;;;;5005606;28;20057;-61
2022/08/02 03:51:09;;;;;;;4.25;1.80;;;18.80;80.30;;;;;;5004997;28;20076;-62
2022/08/02 03:53:36;;;;;;;4.68;1.65;;;18.80;80.10;;;;;;5008760;28;20026;-61
2022/08/02 03:56:03;;;;;;;2.45;1.75;;;18.70;80.00;;;;;;5002859;28;20399;-62
2022/08/02 03:58:29;;;;;;;6.15;1.98;;;18.70;80.10;;;;;;5004139;28;20041;-62
2022/08/02 04:00:56;;;;;;;3.72;1.63;;;18.70;80.20;;;;;;5007000;28;20042;-61
2022/08/02 04:03:22;;;;;;;8.57;1.90;;;18.60;80.30;;;;;;5007281;28;20037;-61
2022/08/02 04:05:48;;;;;;;3.90;1.80;;;18.60;80.50;;;;;;5009128;28;20506;-59
2022/08/02 04:08:14;;;;;;;2.10;1.90;;;18.60;80.20;;;;;;5006539;28;20567;-62
2022/08/02 04:13:31;;;;;;;3.55;2.00;;;18.50;80.30;;;;;;5008088;28;20341;-62
2022/08/02 04:16:02;;;;;;;2.20;1.80;;;18.50;80.50;;;;;;5008092;28;20417;-62
2022/08/02 04:18:33;;;;;;;2.70;2.03;;;18.40;80.60;;;;;;5009891;28;20133;-61
2022/08/02 04:21:03;;;;;;;2.97;2.05;;;18.40;81.00;;;;;;5008671;28;20101;-62
2022/08/02 04:23:30;;;;;;;2.40;2.20;;;18.40;81.10;;;;;;5009612;28;20536;-61
2022/08/02 04:25:56;;;;;;;2.85;2.20;;;18.40;81.00;;;;;;5010761;28;20037;-61
2022/08/02 04:28:22;;;;;;;3.40;2.00;;;18.40;81.10;;;;;;5011845;28;20521;-61
2022/08/02 04:30:49;;;;;;;4.75;2.17;;;18.40;81.50;;;;;;5003657;28;20092;-60
2022/08/02 04:33:15;;;;;;;6.28;2.25;;;18.30;81.80;;;;;;5013170;28;20038;-62
2022/08/02 04:35:42;;;;;;;4.65;2.42;;;18.30;81.90;;;;;;5014136;28;20049;-62
2022/08/02 04:38:07;;;;;;;6.57;2.55;;;18.30;81.90;;;;;;5014363;28;20033;-61
2022/08/02 04:40:33;;;;;;;5.03;3.03;;;18.30;82.00;;;;;;5015130;28;20034;-61
2022/08/02 04:42:59;;;;;;;3.65;2.80;;;18.40;82.10;;;;;;5013504;28;20095;-61
2022/08/02 04:45:25;;;;;;;4.82;2.58;;;18.40;82.20;;;;;;5012187;28;20038;-61
2022/08/02 04:47:52;;;;;;;4.75;2.55;;;18.40;82.20;;;;;;5014629;28;20034;-60
2022/08/02 04:50:19;;;;;;;3.25;2.33;;;18.50;82.20;;;;;;5015560;28;20052;-61
2022/08/02 04:52:45;;;;;;;3.63;2.15;;;18.50;82.20;;;;;;5014604;28;20038;-61
2022/08/02 04:55:11;;;;;;;2.42;2.03;;;18.50;82.40;;;;;;5015051;28;20034;-62
2022/08/02 04:57:54;;;;;;;4.32;2.03;;;18.50;82.50;;;;;;5014420;28;20038;-63
2022/08/02 05:00:21;;;;;;;1.55;1.45;;;18.50;82.40;;;;;;5015979;28;20038;-62
2022/08/02 05:02:47;;;;;;;2.22;1.50;;;18.60;82.40;;;;;;5013815;28;20030;-62
2022/08/02 05:05:13;;;;;;;1.70;1.60;;;18.60;82.90;;;;;;5015077;28;20038;-61
2022/08/02 05:07:38;;;;;;;3.50;1.60;;;18.60;82.40;;;;;;5013245;28;20109;-62
2022/08/02 05:10:05;;;;;;;1.85;1.75;;;18.60;82.40;;;;;;5011055;28;20244;-61
2022/08/02 05:12:30;;;;;;;1.50;1.40;;;18.60;82.60;;;;;;5003818;28;20117;-62
2022/08/02 05:14:56;;;;;;;3.22;1.70;;;18.70;82.70;;;;;;5008479;28;20176;-63
2022/08/02 05:17:21;;;;;;;3.10;1.70;;;18.70;82.90;;;;;;5006423;28;20650;-62
2022/08/02 05:19:47;;;;;;;2.53;1.98;;;18.70;82.80;;;;;;5008485;28;20030;-60
2022/08/02 05:22:12;;;;;;;1.83;1.73;;;18.80;82.70;;;;;;5011106;28;20603;-62
2022/08/02 05:24:38;;;;;;;4.22;1.95;;;18.80;82.70;;;;;;5005951;28;20037;-62
2022/08/02 05:27:04;;;;;;;2.22;1.98;;;18.80;82.90;;;;;;5006790;28;20044;-59
2022/08/02 05:29:29;;;;;;;3.72;2.13;;;18.90;83.30;;;;;;5011207;28;20038;-62
2022/08/02 05:31:55;;;;;;;5.65;2.38;;;18.90;83.50;;;;;;5012241;28;20434;-62
2022/08/02 05:34:21;;;;;;;10.07;3.03;;;18.90;83.60;;;;;;5013229;28;20111;-62
2022/08/02 05:36:46;;;;;;;3.85;2.50;;;19.00;83.60;;;;;;5014064;28;20065;-61
2022/08/02 05:39:12;;;;;;;4.10;2.53;;;19.10;83.80;;;;;;5014513;28;20042;-63
2022/08/02 05:41:37;;;;;;;4.43;2.80;;;19.10;83.70;;;;;;5010287;28;20030;-60
2022/08/02 05:44:03;;;;;;;6.97;3.03;;;19.20;83.80;;;;;;5013398;28;20061;-61
2022/08/02 05:46:29;;;;;;;3.80;3.25;;;19.20;84.10;;;;;;5010430;28;20046;-62
2022/08/02 05:48:55;;;;;;;7.93;3.40;;;19.30;84.40;;;;;;5014131;28;20521;-61
2022/08/02 05:51:37;;;;;;;5.47;3.90;;;19.30;84.40;;;;;;5011540;28;20030;-62
2022/08/02 05:54:26;;;;;;;3.22;3.03;;;19.40;85.90;;;;;;5010188;28;20045;-62
2022/08/02 05:57:00;;;;;;;3.95;3.38;;;19.50;85.60;;;;;;5012691;28;20048;-62
2022/08/02 05:59:41;;;;;;;4.97;3.05;;;19.50;85.50;;;;;;5012880;28;20061;-61
2022/08/02 06:02:22;;;;;;;3.13;2.90;;;19.60;85.50;;;;;;5011807;28;20249;-60
2022/08/02 06:05:15;;;;;;;3.05;2.83;;;19.70;85.60;;;;;;5013199;28;20041;-62
2022/08/02 06:07:43;;;;;;;3.25;2.80;;;19.70;85.90;;;;;;5005502;28;20592;-60
2022/08/02 06:10:13;;;;;;;3.50;2.67;;;19.80;85.20;;;;;;5014994;28;20037;-60
2022/08/02 06:12:59;;;;;;;3.70;2.83;;;19.90;84.90;;;;;;5008346;28;20042;-61
2022/08/02 06:15:26;;;;;;;3.03;2.55;;;20.00;85.30;;;;;;5012228;28;20057;-62
2022/08/02 06:17:51;;;;;;;3.97;2.42;;;20.00;84.80;;;;;;5013699;28;20073;-61
2022/08/02 06:20:19;;;;;;;2.95;2.63;;;20.00;84.80;;;;;;5006876;28;20125;-59
2022/08/02 06:22:45;;;;;;;2.83;2.50;;;20.10;84.90;;;;;;5009486;28;20030;-61
2022/08/02 06:25:12;;;;;;;2.75;2.55;;;20.20;84.80;;;;;;5013101;28;20537;-60
2022/08/02 06:27:39;;;;;;;3.63;2.40;;;20.30;84.60;;;;;;5012731;28;20038;-61
2022/08/02 06:30:07;;;;;;;2.67;2.28;;;20.30;84.30;;;;;;5015104;28;20563;-61
2022/08/02 06:32:33;;;;;;;2.88;2.28;;;20.40;83.90;;;;;;5008890;28;20135;-61
2022/08/02 06:34:59;;;;;;;3.55;2.60;;;20.40;83.60;;;;;;5011675;28;20065;-61
2022/08/02 06:37:50;;;;;;;2.65;2.45;;;20.50;83.40;;;;;;5012663;28;20409;-62
2022/08/02 06:40:25;;;;;;;3.15;2.78;;;20.50;83.20;;;;;;5011692;28;20033;-62
2022/08/02 06:42:54;;;;;;;3.30;2.67;;;20.60;83.40;;;;;;5012030;28;20033;-62
2022/08/02 06:45:19;;;;;;;2.58;2.25;;;20.60;83.40;;;;;;5011927;28;20448;-62
2022/08/02 06:47:45;;;;;;;3.58;2.55;;;20.70;83.30;;;;;;5010856;28;20034;-61
2022/08/02 06:50:11;;;;;;;2.45;2.17;;;20.70;83.40;;;;;;5012207;28;20604;-60
2022/08/02 06:52:37;;;;;;;3.55;2.63;;;20.70;83.20;;;;;;5012853;28;20042;-62
2022/08/02 06:55:04;;;;;;;2.65;2.45;;;20.80;83.40;;;;;;5011881;28;20034;-61
2022/08/02 06:57:30;;;;;;;2.20;2.00;;;20.80;83.40;;;;;;5011750;28;20167;-61
2022/08/02 06:59:59;;;;;;;2.85;2.40;;;20.80;83.30;;;;;;5010637;28;20044;-62
2022/08/02 07:02:25;;;;;;;2.15;1.95;;;20.90;83.50;;;;;;5011388;28;20041;-62
2022/08/02 07:04:51;;;;;;;2.35;2.00;;;20.90;83.40;;;;;;5009299;28;20033;-61
2022/08/02 07:07:17;;;;;;;2.05;1.95;;;21.00;83.20;;;;;;5009453;28;20040;-62
2022/08/02 07:09:42;;;;;;;4.18;2.30;;;21.10;82.80;;;;;;5013115;28;20125;-60
2022/08/02 07:12:08;;;;;;;2.55;2.03;;;21.10;82.70;;;;;;5007482;28;20056;-61
2022/08/02 07:14:33;;;;;;;3.08;1.90;;;21.10;82.80;;;;;;5011142;28;20437;-60
2022/08/02 07:16:59;;;;;;;2.42;1.70;;;21.20;82.40;;;;;;5011853;28;20220;-61
2022/08/02 07:19:25;;;;;;;4.35;2.30;;;21.20;82.30;;;;;;5009037;28;20471;-62
2022/08/02 07:21:50;;;;;;;3.22;2.00;;;21.30;82.60;;;;;;5011810;28;20026;-62
2022/08/02 07:24:16;;;;;;;3.80;2.20;;;21.30;82.30;;;;;;5010829;28;20038;-61
2022/08/02 07:26:41;;;;;;;3.15;2.53;;;21.40;82.20;;;;;;5012133;28;20033;-62
2022/08/02 07:29:07;;;;;;;4.05;2.40;;;21.50;82.70;;;;;;5011655;28;20033;-62
2022/08/02 07:31:32;;;;;;;3.67;2.50;;;21.50;82.70;;;;;;5010633;28;20034;-61
2022/08/02 07:33:58;;;;;;;3.25;2.38;;;21.60;82.90;;;;;;5009813;28;20029;-61
2022/08/02 07:36:24;;;;;;;2.30;2.10;;;21.60;82.20;;;;;;5004776;28;20096;-62
2022/08/02 07:38:50;;;;;;;2.53;2.30;;;21.70;82.40;;;;;;5008212;28;20034;-62
2022/08/02 07:41:15;;;;;;;2.83;2.20;;;21.80;82.40;;;;;;5014059;28;20040;-61
2022/08/02 07:43:41;;;;;;;2.15;1.92;;;21.80;81.90;;;;;;5011637;28;20033;-60
2022/08/02 07:46:07;;;;;;;1.95;1.85;;;21.90;81.60;;;;;;5015038;28;20036;-61
2022/08/02 07:48:32;;;;;;;2.58;1.88;;;22.00;81.30;;;;;;5011532;28;20506;-62
2022/08/02 07:50:58;;;;;;;2.63;2.00;;;22.10;80.80;;;;;;5012725;28;20034;-61
2022/08/02 07:53:23;;;;;;;5.68;3.33;;;22.10;80.50;;;;;;5010510;28;20029;-62
2022/08/02 07:55:50;;;;;;;3.88;3.58;;;22.20;80.60;;;;;;5011031;28;20066;-61
2022/08/02 07:58:15;;;;;;;4.70;4.07;;;22.20;80.10;;;;;;5011107;28;20034;-62
2022/08/02 08:00:42;;;;;;;5.10;4.65;;;22.30;80.00;;;;;;5011743;28;20052;-62
2022/08/02 08:03:08;;;;;;;4.38;3.90;;;22.40;79.50;;;;;;5002690;28;20103;-62
2022/08/02 08:05:33;;;;;;;4.25;3.85;;;22.40;79.10;;;;;;5009230;28;20029;-62
2022/08/02 08:07:59;;;;;;;3.90;3.60;;;22.50;78.60;;;;;;5009735;28;20030;-61
2022/08/02 08:10:24;;;;;;;3.92;3.53;;;22.50;78.60;;;;;;5007904;28;20042;-63
2022/08/02 08:12:50;;;;;;;5.13;3.00;;;22.50;78.30;;;;;;5008943;28;20124;-62
2022/08/02 08:15:16;;;;;;;3.08;2.50;;;22.60;78.90;;;;;;5011538;28;20072;-62
2022/08/02 08:17:41;;;;;;;3.45;2.40;;;22.70;78.70;;;;;;5012701;28;20041;-62
2022/08/02 08:20:08;;;;;;;3.15;2.35;;;22.70;78.20;;;;;;5011899;28;20085;-62
2022/08/02 08:22:34;;;;;;;3.17;2.15;;;22.80;78.30;;;;;;5008865;28;20420;-60
2022/08/02 08:25:00;;;;;;;2.42;2.22;;;22.90;78.40;;;;;;5007706;28;20042;-62
2022/08/02 08:27:25;;;;;;;2.28;2.08;;;22.90;78.20;;;;;;5012302;28;20030;-62
2022/08/02 08:29:51;;;;;;;2.33;2.00;;;23.00;77.30;;;;;;5012868;28;20034;-61
2022/08/02 08:32:16;;;;;;;2.20;2.00;;;23.10;77.20;;;;;;5008378;28;20608;-62
2022/08/02 08:34:42;;;;;;;3.97;2.10;;;23.10;77.10;;;;;;5008182;28;20127;-61
2022/08/02 08:37:08;;;;;;;1.95;1.60;;;23.20;76.50;;;;;;5008741;28;20041;-62
2022/08/02 08:39:33;;;;;;;2.03;1.33;;;23.30;76.00;;;;;;5009091;28;20095;-62
2022/08/02 08:41:59;;;;;;;1.90;1.67;;;23.30;76.20;;;;;;5009590;28;20107;-62
2022/08/02 08:44:26;;;;;;;1.60;1.50;;;23.40;76.20;;;;;;5006913;28;20533;-60
2022/08/02 08:46:55;;;;;;;1.60;1.50;;;23.50;75.80;;;;;;5012208;28;20108;-60
2022/08/02 08:49:40;;;;;;;2.08;1.60;;;23.60;75.50;;;;;;5009381;28;20041;-61
2022/08/02 08:52:06;;;;;;;1.73;1.30;;;23.60;74.40;;;;;;5012934;28;20053;-60
2022/08/02 08:54:34;;;;;;;3.17;1.30;;;23.70;74.40;;;;;;5006889;28;20042;-61
2022/08/02 08:57:04;;;;;;;2.63;1.70;;;23.80;73.50;;;;;;5011211;28;20387;-60
2022/08/02 08:59:30;;;;;;;1.48;1.20;;;23.80;73.20;;;;;;5012035;28;20041;-61
2022/08/02 09:01:56;;;;;;;2.15;1.23;;;23.90;72.10;;;;;;5015086;28;20512;-61
2022/08/02 09:04:22;;;;;;;1.42;1.33;;;23.90;71.00;;;;;;5015600;28;20054;-62
2022/08/02 09:06:47;;;;;;;2.20;1.83;;;24.00;70.60;;;;;;5019540;28;20026;-62
2022/08/02 09:09:13;;;;;;;1.60;1.50;;;24.00;70.90;;;;;;5018687;28;20397;-61
2022/08/02 09:11:39;;;;;;;1.70;1.40;;;24.10;71.00;;;;;;5016519;28;20033;-62
2022/08/02 09:14:04;;;;;;;2.63;1.80;;;24.10;71.10;;;;;;5017872;28;20180;-61
2022/08/02 09:16:35;;;;;;;4.30;1.40;;;24.20;69.70;;;;;;5017956;28;20124;-62
2022/08/02 09:19:17;;;;;;;3.15;1.20;;;24.30;69.40;;;;;;5019360;28;20050;-62
2022/08/02 09:21:43;;;;;;;1.33;1.20;;;24.40;68.70;;;;;;5018609;28;20482;-61
2022/08/02 09:24:21;;;;;;;2.80;1.10;;;24.50;70.00;;;;;;5018344;28;20110;-61
2022/08/02 09:26:49;;;;;;;4.25;1.40;;;24.60;67.70;;;;;;5018341;28;20033;-60
2022/08/02 09:29:18;;;;;;;1.40;1.30;;;24.70;68.60;;;;;;5017511;28;20159;-62
2022/08/02 09:31:44;;;;;;;2.13;1.25;;;24.70;68.30;;;;;;5019683;28;20037;-62
2022/08/02 09:34:10;;;;;;;1.25;1.00;;;24.80;68.40;;;;;;5017750;28;20113;-62
2022/08/02 09:36:39;;;;;;;1.20;0.98;;;24.90;67.20;;;;;;5017706;28;20049;-61
2022/08/02 09:39:06;;;;;;;1.73;1.15;;;25.00;67.10;;;;;;5015822;28;20052;-62
2022/08/02 09:41:34;;;;;;;1.58;0.90;;;25.20;67.00;;;;;;5013143;28;20404;-61
2022/08/02 09:44:02;;;;;;;0.80;0.80;;;25.30;66.50;;;;;;5015739;28;20545;-61
2022/08/02 09:46:31;;;;;;;0.77;0.77;;;25.40;66.50;;;;;;5013277;28;20531;-62
2022/08/02 09:49:04;;;;;;;1.23;1.10;;;25.50;66.00;;;;;;5014910;28;20078;-62
2022/08/02 09:51:47;;;;;;;1.45;1.23;;;25.50;64.10;;;;;;5013159;28;20033;-60
2022/08/02 09:54:23;;;;;;;1.27;1.02;;;25.60;61.40;;;;;;5011394;28;20030;-61
2022/08/02 09:56:57;;;;;;;2.92;1.00;;;25.70;61.20;;;;;;5013421;28;20061;-62
2022/08/02 09:59:24;;;;;;;2.20;0.90;;;25.80;62.40;;;;;;5011540;28;20049;-62
2022/08/02 10:01:51;;;;;;;0.80;0.80;;;25.80;63.30;;;;;;5014992;28;20287;-62
2022/08/02 10:04:20;;;;;;;1.75;1.10;;;25.80;63.40;;;;;;5014342;28;20294;-62
2022/08/02 10:06:47;;;;;;;3.92;1.73;;;25.90;63.30;;;;;;5014732;28;20034;-61
2022/08/02 10:09:13;;;;;;;2.22;1.35;;;25.90;62.90;;;;;;5011276;28;20385;-62
2022/08/02 10:11:40;;;;;;;1.83;1.00;;;26.00;62.50;;;;;;5004801;28;20037;-63
2022/08/02 10:14:09;;;;;;;1.70;1.40;;;26.00;63.30;;;;;;5010059;28;20084;-62
2022/08/02 10:16:37;;;;;;;1.40;1.30;;;26.10;62.40;;;;;;5013338;28;20117;-62
2022/08/02 10:19:03;;;;;;;1.50;1.40;;;26.10;61.70;;;;;;5013362;28;20037;-63
2022/08/02 10:21:59;;;;;;;1.75;1.63;;;26.20;62.10;;;;;;5009801;28;20129;-62
2022/08/02 10:24:30;;;;;;;1.42;1.33;;;26.30;59.80;;;;;;5011252;28;20091;-62
2022/08/02 10:26:58;;;;;;;0.90;0.90;;;26.40;60.90;;;;;;5013781;28;20034;-62
2022/08/02 10:29:31;;;;;;;1.48;1.17;;;26.40;61.70;;;;;;5011669;28;20034;-62
2022/08/02 10:32:03;;;;;;;1.13;1.02;;;26.50;60.10;;;;;;5015054;28;20037;-64
2022/08/02 10:34:43;;;;;;;4.32;1.23;;;26.60;60.00;;;;;;5009519;28;20510;-63
2022/08/02 10:37:12;;;;;;;0.73;0.73;;;26.60;60.10;;;;;;5013325;28;20112;-62
2022/08/02 10:39:42;;;;;;;3.35;1.10;;;26.70;60.50;;;;;;5012049;28;20092;-62
2022/08/02 10:42:08;;;;;;;0.75;0.75;;;26.80;60.50;;;;;;5013173;28;20437;-63
2022/08/02 10:44:35;;;;;;;0.80;0.80;;;26.80;60.10;;;;;;5010831;28;20038;-62
2022/08/02 10:47:13;;;;;;;1.10;0.80;;;26.90;59.80;;;;;;5010278;28;20033;-62
2022/08/02 10:49:48;;;;;;;0.77;0.77;;;26.90;58.60;;;;;;5010609;28;20037;-62
2022/08/02 10:52:14;;;;;;;3.03;0.90;;;27.00;58.90;;;;;;5012003;28;20041;-62
2022/08/02 10:54:42;;;;;;;1.80;0.95;;;27.00;59.20;;;;;;5010788;28;20045;-62
2022/08/02 10:57:25;;;;;;;0.77;0.77;;;27.10;59.00;;;;;;5008184;28;20041;-62
2022/08/02 11:00:00;;;;;;;2.60;0.80;;;27.20;58.20;;;;;;5013188;28;20454;-62
2022/08/02 11:02:36;;;;;;;;;;;27.20;59.00;;;;;;5013102;28;21825;-62
2022/08/02 11:05:05;;;;;;;0.95;0.95;;;27.30;59.30;;;;;;5012253;28;19925;-62
2022/08/02 11:07:40;;;;;;;1.10;1.00;;;27.30;58.60;;;;;;5011980;28;20399;-62
2022/08/02 11:10:31;;;;;;;0.77;0.75;;;27.30;58.10;;;;;;5011760;28;20087;-62
2022/08/02 11:12:59;;;;;;;0.98;0.88;;;27.40;57.80;;;;;;5010218;28;20612;-62
2022/08/02 11:15:26;;;;;;;2.03;0.93;;;27.40;58.20;;;;;;5011097;28;20341;-61
2022/08/02 11:18:01;;;;;;;1.27;0.90;;;27.40;57.40;;;;;;5009422;28;20537;-60
2022/08/02 11:20:27;;;;;;;1.20;0.90;;;27.40;56.90;;;;;;5010450;28;20155;-61
2022/08/02 11:22:53;;;;;;;1.00;0.90;;;27.40;57.40;;;;;;5012553;28;20041;-62
2022/08/02 11:25:22;;;;;;;2.42;0.73;;;27.40;56.80;;;;;;5006774;28;20034;-61
2022/08/02 11:27:57;;;;;;;0.80;0.80;;;27.40;56.40;;;;;;5009172;28;20040;-62
2022/08/02 11:30:24;;;;;;;1.73;0.90;;;27.40;56.60;;;;;;5010915;28;20048;-61
2022/08/02 11:32:55;;;;;;;0.80;0.80;;;27.40;57.10;;;;;;5009790;28;20108;-62
2022/08/02 11:35:21;;;;;;;0.95;0.95;;;27.50;57.20;;;;;;5009013;28;20096;-63
2022/08/02 11:37:46;;;;;;;1.00;1.00;;;27.50;56.50;;;;;;5012012;28;20588;-62
2022/08/02 11:40:15;;;;;;;3.05;0.90;;;27.60;57.40;;;;;;5010111;28;20449;-62
2022/08/02 11:42:44;;;;;;;1.05;0.85;;;27.60;56.40;;;;;;5007302;28;20042;-62
2022/08/02 11:45:11;;;;;;;1.48;0.80;;;27.70;56.60;;;;;;5011141;28;20043;-63
2022/08/02 11:47:47;;;;;;;0.98;0.77;;;27.70;56.60;;;;;;5011205;28;20033;-62
2022/08/02 11:50:13;;;;;;;0.70;0.70;;;27.80;56.10;;;;;;5013368;28;20033;-62
2022/08/02 11:52:39;;;;;;;1.25;1.10;;;27.80;56.40;;;;;;5009536;28;20196;-62
2022/08/02 11:55:07;;;;;;;0.88;0.80;;;27.90;56.00;;;;;;5009427;28;20541;-62
2022/08/02 11:57:34;;;;;;;0.80;0.80;;;27.90;55.50;;;;;;5009671;28;20044;-62
2022/08/02 11:59:59;;;;;;;0.70;0.70;;;28.00;55.60;;;;;;5008174;28;20033;-63
2022/08/02 12:02:30;;;;;;;0.70;0.70;;;28.00;55.10;;;;;;5010880;28;20056;-62
2022/08/02 12:05:05;;;;;;;2.53;0.90;;;28.10;55.00;;;;;;5012199;28;20409;-62
2022/08/02 12:07:33;;;;;;;1.00;0.82;;;28.10;53.60;;;;;;5010908;28;20048;-63
2022/08/02 12:10:00;;;;;;;1.20;0.80;;;28.10;54.00;;;;;;5013564;28;20046;-61
2022/08/02 12:12:26;;;;;;;4.72;0.80;;;28.10;54.40;;;;;;5004904;28;20030;-62
2022/08/02 12:14:52;;;;;;;1.02;0.70;;;28.20;54.50;;;;;;5010733;28;20057;-62
2022/08/02 12:20:12;;;;;;;0.70;0.70;;;28.20;53.80;;;;;;5007817;28;20048;-62
2022/08/02 12:22:38;;;;;;;0.90;0.80;;;28.20;54.30;;;;;;5007438;28;20131;-63
2022/08/02 12:25:19;;;;;;;0.80;0.80;;;28.30;54.50;;;;;;5009826;28;20034;-63
2022/08/02 12:27:45;;;;;;;1.20;0.80;;;28.40;54.10;;;;;;5008147;28;20281;-62
2022/08/02 12:30:16;;;;;;;4.40;0.80;;;28.40;55.00;;;;;;5007556;28;20091;-62
2022/08/02 12:32:42;;;;;;;0.82;0.70;;;28.40;53.90;;;;;;5007810;28;20379;-62
2022/08/02 12:35:16;;;;;;;2.00;0.70;;;28.40;53.20;;;;;;5007661;28;20053;-63
2022/08/02 12:37:45;;;;;;;0.90;0.70;;;28.50;51.60;;;;;;5008711;28;20038;-62
2022/08/02 12:40:30;;;;;;;0.65;0.60;;;28.50;53.20;;;;;;5007336;28;20069;-63
2022/08/02 12:42:58;;;;;;;0.75;0.50;;;28.50;53.40;;;;;;5011072;28;20029;-62
2022/08/02 12:45:26;;;;;;;0.70;0.70;;;28.50;53.50;;;;;;5006292;28;20103;-62
2022/08/02 12:47:54;;;;;;;0.95;0.65;;;28.50;53.40;;;;;;5011003;28;20497;-63
2022/08/02 12:50:46;;;;;;;0.60;0.60;;;28.50;53.00;;;;;;5012263;28;20049;-63
2022/08/02 12:53:14;;;;;;;1.10;0.57;;;28.60;52.60;;;;;;5011905;28;20042;-62
2022/08/02 12:56:09;;;;;;;1.02;0.80;;;28.60;52.60;;;;;;5009763;28;20049;-63
2022/08/02 12:58:48;;;;;;;0.68;0.63;;;28.60;52.10;;;;;;4997592;28;20037;-64
2022/08/02 13:01:20;;;;;;;0.55;0.55;;;28.60;50.30;;;;;;5009102;28;20034;-64
2022/08/02 13:03:46;;;;;;;1.15;0.70;;;28.60;50.50;;;;;;5009272;28;20133;-62